Time;durP1;ratioP1;P1;durP2;ratioP2;P2;SDS_P1;SDS_P2;PMS_P1;PMS_P2;Temp;Humidity;BMP_temperature;BMP_pressure;BME280_temperature;BME280_humidity;BME280_pressure;Samples;Min_cycle;Max_cycle;Signal;HPM_P1;HPM_P2
2022/07/17 00:02:25;;;;;;;9.02;5.68;;;;;;;27.50;43.22;102274.13;6159359;23;20103;-81
2022/07/17 00:04:50;;;;;;;8.40;6.10;;;;;;;27.43;43.46;102274.88;6184622;23;20009;-82
2022/07/17 00:07:16;;;;;;;14.00;7.00;;;;;;;27.43;43.40;102274.88;6159654;23;20036;-83
2022/07/17 00:09:42;;;;;;;9.88;6.32;;;;;;;27.44;43.39;102265.31;6184222;23;20011;-82
2022/07/17 00:12:07;;;;;;;11.30;6.05;;;;;;;27.51;43.23;102267.34;6159510;23;20015;-81
2022/07/17 00:14:33;;;;;;;13.55;7.60;;;;;;;27.50;43.25;102274.94;6159642;23;20028;-81
2022/07/17 00:16:59;;;;;;;17.35;7.95;;;;;;;27.47;43.42;102264.50;6186013;23;20037;-82
2022/07/17 00:19:25;;;;;;;11.63;8.18;;;;;;;27.44;43.29;102258.88;6159339;23;20519;-80
2022/07/17 00:21:51;;;;;;;12.50;8.07;;;;;;;27.50;43.47;102251.69;6159602;23;20309;-81
2022/07/17 00:24:19;;;;;;;10.18;7.63;;;;;;;27.47;43.64;102250.47;6184308;23;20012;-83
2022/07/17 00:26:50;;;;;;;18.90;7.78;;;;;;;27.42;43.67;102238.81;6184289;23;20012;-81
2022/07/17 00:29:16;;;;;;;19.80;9.40;;;;;;;27.34;43.81;102232.34;6185614;23;20001;-81
2022/07/17 00:31:42;;;;;;;13.00;7.47;;;;;;;27.27;44.21;102233.09;6159535;23;20012;-81
2022/07/17 00:34:08;;;;;;;17.48;8.52;;;;;;;27.23;43.92;102221.06;6159427;23;20009;-82
2022/07/17 00:36:34;;;;;;;13.40;8.30;;;;;;;27.25;43.97;102223.47;6159263;23;20009;-83
2022/07/17 00:38:59;;;;;;;14.70;8.75;;;;;;;27.27;44.19;102232.31;6159428;23;20040;-82
2022/07/17 00:41:25;;;;;;;12.65;7.82;;;;;;;27.29;44.00;102239.16;6159259;23;20005;-81
2022/07/17 00:43:51;;;;;;;17.73;9.25;;;;;;;27.30;44.07;102235.16;6159160;23;20006;-83
2022/07/17 00:46:17;;;;;;;10.40;7.82;;;;;;;27.40;43.68;102224.38;6159380;23;20009;-80
2022/07/17 00:48:44;;;;;;;10.43;7.95;;;;;;;27.36;44.20;102236.38;6159115;23;20012;-81
2022/07/17 00:51:10;;;;;;;12.25;8.13;;;;;;;27.35;44.15;102236.75;6185640;23;20005;-81
2022/07/17 00:53:37;;;;;;;15.88;8.15;;;;;;;27.32;44.14;102226.31;6185735;23;20011;-82
2022/07/17 00:56:04;;;;;;;14.57;8.02;;;;;;;27.32;44.13;102223.53;6185569;23;20013;-80
2022/07/17 00:58:34;;;;;;;14.63;7.72;;;;;;;27.36;44.22;102219.56;6159147;23;20005;-82
2022/07/17 01:01:06;;;;;;;11.43;6.65;;;;;;;27.37;44.22;102206.31;6159209;23;20081;-81
2022/07/17 01:03:32;;;;;;;11.85;8.98;;;;;;;27.35;44.10;102195.47;6185434;23;20348;-82
2022/07/17 01:05:58;;;;;;;12.38;10.13;;;;;;;27.30;44.07;102195.06;6159110;23;20036;-83
2022/07/17 01:08:24;;;;;;;14.45;9.68;;;;;;;27.28;44.01;102178.63;6185208;23;20013;-81
2022/07/17 01:10:50;;;;;;;16.92;11.43;;;;;;;27.30;43.94;102172.59;6158642;23;20008;-81
2022/07/17 01:13:16;;;;;;;14.98;12.15;;;;;;;27.23;44.23;102167.75;6158977;23;20032;-83
2022/07/17 01:15:42;;;;;;;16.27;11.40;;;;;;;27.36;43.98;102163.41;6185437;23;20004;-81
2022/07/17 01:18:11;;;;;;;15.38;12.25;;;;;;;27.23;44.17;102153.72;6158758;23;20009;-83
2022/07/17 01:20:38;;;;;;;18.05;12.57;;;;;;;27.36;44.13;102151.41;6184494;23;20029;-83
2022/07/17 01:23:05;;;;;;;14.80;11.43;;;;;;;27.37;43.72;102153.00;6158431;23;20016;-80
2022/07/17 01:25:31;;;;;;;16.55;12.05;;;;;;;27.24;44.23;102141.31;6158872;23;20009;-81
2022/07/17 01:27:57;;;;;;;15.07;12.07;;;;;;;27.29;44.07;102128.91;6158329;23;20012;-83
2022/07/17 01:30:23;;;;;;;14.80;11.65;;;;;;;27.35;43.98;102132.91;6159041;23;20008;-81
2022/07/17 01:32:48;;;;;;;14.70;10.65;;;;;;;27.31;44.27;102141.34;6158955;23;20012;-82
2022/07/17 01:35:15;;;;;;;14.00;11.10;;;;;;;27.28;44.29;102132.88;6158756;23;20005;-80
2022/07/17 01:37:42;;;;;;;12.65;11.05;;;;;;;27.37;44.16;102114.50;6185413;23;20005;-82
2022/07/17 01:40:10;;;;;;;12.48;11.20;;;;;;;27.37;44.43;102119.31;6158753;23;20328;-81
2022/07/17 01:42:36;;;;;;;13.05;11.63;;;;;;;27.40;44.09;102098.06;6184807;23;20425;-81
2022/07/17 01:45:01;;;;;;;12.85;10.93;;;;;;;27.44;44.05;102110.13;6156330;23;20015;-82
2022/07/17 01:47:27;;;;;;;14.57;10.45;;;;;;;27.43;44.30;102111.28;6184829;23;20083;-81
2022/07/17 01:49:56;;;;;;;15.07;11.52;;;;;;;27.40;44.18;102118.50;6158664;23;20084;-83
2022/07/17 01:52:24;;;;;;;10.93;9.82;;;;;;;27.32;44.26;102109.28;6158710;23;20320;-81
2022/07/17 01:54:50;;;;;;;13.95;10.60;;;;;;;27.34;44.03;102120.09;6158608;23;20008;-81
2022/07/17 01:57:16;;;;;;;12.05;10.05;;;;;;;27.27;44.26;102129.28;6184930;23;20423;-81
2022/07/17 01:59:42;;;;;;;12.88;9.90;;;;;;;27.21;44.49;102125.28;6158453;23;20087;-82
2022/07/17 02:02:09;;;;;;;12.80;9.95;;;;;;;27.23;44.28;102122.06;6158385;23;20029;-82
2022/07/17 02:04:36;;;;;;;12.00;9.85;;;;;;;27.21;44.65;102122.47;6158642;23;20348;-83
2022/07/17 02:07:03;;;;;;;12.77;10.07;;;;;;;27.21;44.75;102130.09;6158537;23;20005;-81
2022/07/17 02:09:28;;;;;;;13.07;10.50;;;;;;;27.15;44.51;102117.63;6184899;23;20021;-83
2022/07/17 02:11:54;;;;;;;14.27;9.75;;;;;;;27.15;44.35;102128.84;6184862;23;20008;-81
2022/07/17 02:14:20;;;;;;;12.13;10.32;;;;;;;27.14;44.56;102118.81;6184847;23;20437;-82
2022/07/17 02:16:46;;;;;;;21.30;10.20;;;;;;;27.14;44.69;102116.81;6184888;23;20005;-81
2022/07/17 02:19:12;;;;;;;13.80;10.60;;;;;;;27.12;44.73;102122.00;6184595;23;20056;-82
2022/07/17 02:21:38;;;;;;;13.90;10.98;;;;;;;27.13;44.55;102120.84;6184735;23;20001;-81
2022/07/17 02:24:04;;;;;;;12.95;9.95;;;;;;;27.15;44.57;102117.63;6158398;23;20029;-81
2022/07/17 02:26:30;;;;;;;15.57;11.25;;;;;;;27.10;44.56;102118.78;6184702;23;20005;-81
2022/07/17 02:28:55;;;;;;;25.40;9.98;;;;;;;27.04;44.54;102123.97;6158136;23;20009;-81
2022/07/17 02:31:21;;;;;;;21.73;9.57;;;;;;;26.98;44.60;102133.13;6158439;23;20055;-83
2022/07/17 02:33:47;;;;;;;14.70;10.18;;;;;;;26.83;44.83;102135.88;6184868;23;19997;-81
2022/07/17 02:36:13;;;;;;;19.73;10.65;;;;;;;26.89;44.83;102139.06;6184792;23;20009;-81
2022/07/17 02:38:38;;;;;;;17.77;11.10;;;;;;;26.96;44.79;102139.13;6158306;23;20009;-81
2022/07/17 02:41:04;;;;;;;12.38;9.60;;;;;;;26.97;44.77;102143.53;6184692;23;20001;-81
2022/07/17 02:43:30;;;;;;;13.63;9.90;;;;;;;26.96;44.84;102152.34;6184746;23;20005;-81
2022/07/17 02:45:56;;;;;;;15.38;10.70;;;;;;;26.93;44.89;102153.94;6184548;23;20005;-83
2022/07/17 02:48:21;;;;;;;12.15;10.02;;;;;;;26.89;44.79;102153.09;6158371;23;20080;-81
2022/07/17 02:50:47;;;;;;;11.35;9.73;;;;;;;26.94;44.78;102161.16;6158403;23;20091;-84
2022/07/17 02:53:12;;;;;;;18.48;9.98;;;;;;;26.70;45.49;102147.78;6158279;23;20009;-84
2022/07/17 02:55:38;;;;;;;12.00;9.07;;;;;;;26.76;45.22;102151.84;6158298;23;20009;-82
2022/07/17 02:58:04;;;;;;;11.13;9.23;;;;;;;26.91;44.78;102147.13;6158348;23;20088;-82
2022/07/17 03:00:30;;;;;;;11.75;9.27;;;;;;;26.93;44.70;102139.91;6158341;23;20005;-81
2022/07/17 03:02:56;;;;;;;12.07;9.82;;;;;;;26.92;44.69;102140.31;6184677;23;20376;-82
2022/07/17 03:05:22;;;;;;;13.85;9.23;;;;;;;26.92;44.36;102135.50;6185007;23;20037;-79
2022/07/17 03:07:48;;;;;;;11.52;8.25;;;;;;;26.95;44.42;102137.53;6160223;23;20011;-82
2022/07/17 03:10:14;;;;;;;15.07;8.50;;;;;;;26.95;44.54;102133.91;6160436;23;20036;-82
2022/07/17 03:12:40;;;;;;;13.75;7.55;;;;;;;26.90;44.51;102132.28;6160274;23;20012;-81
2022/07/17 03:15:07;;;;;;;9.98;7.40;;;;;;;26.85;44.17;102132.66;6160242;23;20432;-80
2022/07/17 03:17:33;;;;;;;10.18;7.75;;;;;;;26.83;44.31;102126.66;6160351;23;20092;-80
2022/07/17 03:19:59;;;;;;;12.45;7.47;;;;;;;26.87;44.29;102138.69;6186419;23;20380;-79
2022/07/17 03:22:25;;;;;;;10.43;7.03;;;;;;;26.74;44.40;102137.38;6160253;23;20008;-79
2022/07/17 03:24:51;;;;;;;7.70;5.97;;;;;;;26.76;44.11;102141.44;6160300;23;20047;-80
2022/07/17 03:27:17;;;;;;;7.68;5.88;;;;;;;26.71;43.99;102141.78;6186439;23;20009;-79
2022/07/17 03:29:44;;;;;;;7.32;5.28;;;;;;;26.68;44.05;102151.00;6160006;23;20036;-80
2022/07/17 03:32:10;;;;;;;6.82;5.70;;;;;;;26.69;43.71;102146.97;6160009;23;20001;-80
2022/07/17 03:34:39;;;;;;;8.32;5.70;;;;;;;26.72;43.82;102153.81;6160122;23;20455;-79
2022/07/17 03:37:05;;;;;;;7.72;5.43;;;;;;;26.72;43.57;102156.59;6160088;23;20005;-81
2022/07/17 03:39:31;;;;;;;6.95;5.28;;;;;;;26.72;43.77;102151.00;6159778;23;20009;-81
2022/07/17 03:41:57;;;;;;;8.05;5.53;;;;;;;26.70;43.56;102153.41;6160058;23;20340;-79
2022/07/17 03:44:23;;;;;;;9.70;6.05;;;;;;;26.71;43.36;102147.38;6159864;23;20005;-81
2022/07/17 03:46:49;;;;;;;9.25;4.68;;;;;;;26.67;43.43;102140.94;6186236;23;20032;-80
2022/07/17 03:49:15;;;;;;;6.32;4.50;;;;;;;26.67;43.23;102140.13;6159856;23;20386;-81
2022/07/17 03:51:41;;;;;;;6.95;4.65;;;;;;;26.65;43.01;102142.53;6159410;23;20012;-81
2022/07/17 03:54:07;;;;;;;8.52;5.40;;;;;;;26.67;42.92;102145.75;6159982;23;20005;-80
2022/07/17 03:56:32;;;;;;;8.80;5.50;;;;;;;26.61;43.07;102145.31;6186325;23;20001;-81
2022/07/17 03:58:58;;;;;;;13.13;5.00;;;;;;;26.54;43.03;102151.69;6159891;23;20020;-82
2022/07/17 04:01:24;;;;;;;21.08;6.72;;;;;;;26.57;42.78;102154.88;6186337;23;20428;-80
2022/07/17 04:03:49;;;;;;;22.50;6.22;;;;;;;26.57;42.50;102149.28;6159726;23;20519;-81
2022/07/17 04:06:15;;;;;;;12.52;5.35;;;;;;;26.58;42.33;102148.09;6159998;23;20062;-81
2022/07/17 04:08:41;;;;;;;10.68;5.47;;;;;;;26.60;42.42;102148.50;6186264;23;20004;-79
2022/07/17 04:11:07;;;;;;;13.90;5.75;;;;;;;26.59;42.53;102138.47;6184582;23;20001;-79
2022/07/17 04:13:33;;;;;;;9.05;5.85;;;;;;;26.54;42.56;102142.47;6159801;23;20084;-80
2022/07/17 04:16:00;;;;;;;7.80;5.07;;;;;;;26.51;42.48;102144.03;6184535;23;20013;-81
2022/07/17 04:18:30;;;;;;;9.00;5.25;;;;;;;26.53;42.35;102144.47;6159168;23;20011;-80
2022/07/17 04:21:00;;;;;;;12.65;5.13;;;;;;;26.54;42.17;102146.06;6159732;23;20004;-79
2022/07/17 04:23:26;;;;;;;6.78;4.95;;;;;;;26.51;42.13;102143.22;6159530;23;20008;-79
2022/07/17 04:25:53;;;;;;;7.95;4.78;;;;;;;26.50;42.38;102142.44;6159427;23;20009;-79
2022/07/17 04:28:18;;;;;;;8.77;5.45;;;;;;;26.52;42.44;102153.25;6159558;23;20455;-79
2022/07/17 04:30:44;;;;;;;6.07;4.20;;;;;;;26.46;42.38;102147.22;6159841;23;20038;-79
2022/07/17 04:33:10;;;;;;;7.50;5.18;;;;;;;26.42;42.18;102148.38;6159536;23;20005;-80
2022/07/17 04:35:36;;;;;;;7.80;4.65;;;;;;;26.40;42.37;102145.97;6159674;23;20009;-79
2022/07/17 04:38:04;;;;;;;7.15;4.80;;;;;;;26.33;42.41;102139.47;6185984;23;20438;-80
2022/07/17 04:40:31;;;;;;;10.65;5.70;;;;;;;26.25;42.64;102138.59;6186119;23;20039;-79
2022/07/17 04:42:56;;;;;;;14.30;5.40;;;;;;;26.31;42.50;102139.06;6159743;23;20451;-80
2022/07/17 04:45:22;;;;;;;12.90;5.70;;;;;;;26.29;42.53;102150.63;6186001;23;19997;-80
2022/07/17 04:47:48;;;;;;;11.82;4.70;;;;;;;26.28;42.67;102152.63;6184798;23;20421;-80
2022/07/17 04:50:14;;;;;;;12.27;4.78;;;;;;;26.26;42.88;102145.81;6159720;23;20009;-80
2022/07/17 04:52:39;;;;;;;11.75;4.60;;;;;;;26.21;42.72;102146.97;6159525;23;20001;-81
2022/07/17 04:55:05;;;;;;;10.57;5.10;;;;;;;26.20;42.58;102158.56;6185888;23;20346;-79
2022/07/17 04:57:31;;;;;;;9.30;5.70;;;;;;;26.18;42.66;102155.34;6185900;23;20338;-79
2022/07/17 04:59:57;;;;;;;10.75;5.22;;;;;;;26.19;42.72;102157.75;6159316;23;20052;-81
2022/07/17 05:02:23;;;;;;;12.90;5.68;;;;;;;26.21;42.88;102154.56;6159254;23;20013;-79
2022/07/17 05:04:49;;;;;;;10.07;6.55;;;;;;;26.22;42.68;102150.56;6185716;23;20009;-80
2022/07/17 05:07:15;;;;;;;11.32;6.65;;;;;;;26.25;42.60;102149.81;6185588;23;20005;-79
2022/07/17 05:09:41;;;;;;;11.65;6.40;;;;;;;26.24;42.55;102142.59;6159000;23;20009;-79
2022/07/17 05:12:08;;;;;;;23.10;7.85;;;;;;;26.26;42.73;102145.81;6185732;23;20087;-79
2022/07/17 05:14:34;;;;;;;33.75;8.63;;;;;;;26.27;42.69;102139.00;6185411;23;20005;-80
2022/07/17 05:17:00;;;;;;;15.40;6.28;;;;;;;26.21;42.69;102138.56;6159130;23;20380;-79
2022/07/17 05:19:26;;;;;;;12.88;5.88;;;;;;;26.22;42.78;102130.94;6185339;23;20001;-80
2022/07/17 05:21:52;;;;;;;29.85;8.65;;;;;;;26.21;42.79;102146.16;6158953;23;20328;-80
2022/07/17 05:24:18;;;;;;;18.73;6.65;;;;;;;26.21;42.72;102144.16;6185469;23;20006;-80
2022/07/17 05:26:44;;;;;;;24.38;7.55;;;;;;;26.18;43.10;102135.72;6158316;23;20013;-80
2022/07/17 05:29:10;;;;;;;31.08;7.93;;;;;;;26.20;43.02;102136.94;6158468;23;20001;-79
2022/07/17 05:31:36;;;;;;;16.70;7.22;;;;;;;26.19;43.05;102128.94;6158921;23;20087;-80
2022/07/17 05:34:02;;;;;;;21.45;7.47;;;;;;;26.18;43.19;102133.75;6185437;23;20005;-79
2022/07/17 05:36:28;;;;;;;14.05;6.60;;;;;;;26.18;43.19;102127.34;6158791;23;20088;-79
2022/07/17 05:38:54;;;;;;;21.67;11.10;;;;;;;26.27;43.00;102130.59;6158721;23;20044;-79
2022/07/17 05:41:19;;;;;;;23.17;7.13;;;;;;;26.34;43.30;102121.47;6158730;23;20080;-79
2022/07/17 05:43:45;;;;;;;23.52;8.02;;;;;;;26.36;43.16;102128.28;6185103;23;20027;-79
2022/07/17 05:46:11;;;;;;;24.30;7.85;;;;;;;26.30;43.28;102124.25;6158730;23;20395;-79
2022/07/17 05:48:36;;;;;;;24.85;8.30;;;;;;;26.27;43.55;102125.00;6185105;23;19997;-81
2022/07/17 05:51:03;;;;;;;31.60;9.32;;;;;;;26.23;43.48;102132.59;6183600;23;20090;-80
2022/07/17 05:53:28;;;;;;;47.42;9.27;;;;;;;26.27;43.42;102125.81;6158964;23;20009;-80
2022/07/17 05:55:54;;;;;;;54.10;10.75;;;;;;;26.28;43.48;102124.59;6158723;23;20013;-80
2022/07/17 05:58:20;;;;;;;37.35;10.77;;;;;;;26.31;43.30;102125.03;6158778;23;20012;-82
2022/07/17 06:00:48;;;;;;;36.80;8.93;;;;;;;26.31;43.50;102128.66;6158217;23;20005;-80
2022/07/17 06:03:15;;;;;;;26.83;9.82;;;;;;;26.37;43.68;102129.06;6184928;23;20108;-80
2022/07/17 06:05:40;;;;;;;27.65;8.60;;;;;;;26.41;43.46;102130.75;6184828;23;20012;-80
2022/07/17 06:08:06;;;;;;;21.33;8.38;;;;;;;26.44;43.82;102131.97;6158463;23;20417;-82
2022/07/17 06:10:33;;;;;;;25.45;8.10;;;;;;;26.48;43.61;102132.81;6158821;23;20033;-81
2022/07/17 06:12:58;;;;;;;31.80;8.70;;;;;;;26.51;43.84;102134.81;6158607;23;20063;-81
2022/07/17 06:15:25;;;;;;;21.55;7.78;;;;;;;26.48;44.08;102138.41;6184957;23;20424;-79
2022/07/17 06:17:50;;;;;;;26.40;9.10;;;;;;;26.65;43.96;102136.94;6158487;23;20005;-79
2022/07/17 06:20:17;;;;;;;23.40;8.32;;;;;;;26.61;43.95;102144.53;6157797;23;20088;-82
2022/07/17 06:22:44;;;;;;;36.45;10.10;;;;;;;26.56;44.40;102142.88;6158566;23;20013;-81
2022/07/17 06:25:10;;;;;;;28.88;10.25;;;;;;;26.62;44.39;102141.31;6158573;23;20002;-81
2022/07/17 06:27:40;;;;;;;33.80;9.05;;;;;;;26.65;44.50;102143.34;6184767;23;20012;-79
2022/07/17 06:30:07;;;;;;;41.75;9.70;;;;;;;26.74;44.37;102145.78;6158291;23;20001;-81
2022/07/17 06:32:32;;;;;;;30.30;8.95;;;;;;;26.79;44.32;102153.84;6184918;23;20001;-81
2022/07/17 06:34:58;;;;;;;22.77;9.55;;;;;;;26.78;44.76;102146.63;6158374;23;20051;-80
2022/07/17 06:37:24;;;;;;;25.15;9.35;;;;;;;26.84;44.61;102150.69;6158618;23;20017;-79
2022/07/17 06:39:49;;;;;;;30.33;11.95;;;;;;;26.88;44.83;102157.09;6157898;23;20039;-80
2022/07/17 06:42:15;;;;;;;25.70;12.73;;;;;;;26.93;45.48;102158.75;6158560;23;20495;-80
2022/07/17 06:44:41;;;;;;;25.27;11.95;;;;;;;27.02;45.26;102156.38;6184720;23;20028;-80
2022/07/17 06:47:06;;;;;;;21.10;11.13;;;;;;;27.11;45.20;102156.88;6184696;23;20137;-79
2022/07/17 06:49:32;;;;;;;16.55;11.23;;;;;;;27.17;44.98;102160.91;6158421;23;20005;-79
2022/07/17 06:51:58;;;;;;;19.10;10.68;;;;;;;27.21;44.93;102170.16;6184590;23;20001;-80
2022/07/17 06:54:25;;;;;;;19.77;11.20;;;;;;;27.26;44.96;102172.56;6158354;23;20009;-81
2022/07/17 06:56:53;;;;;;;15.73;11.65;;;;;;;27.27;45.18;102165.75;6158282;23;20001;-79
2022/07/17 06:59:19;;;;;;;18.25;11.85;;;;;;;27.32;45.16;102170.19;6158355;23;20005;-80
2022/07/17 07:01:45;;;;;;;23.75;13.90;;;;;;;27.34;44.93;102165.78;6158222;23;20005;-80
2022/07/17 07:04:11;;;;;;;28.00;14.07;;;;;;;27.38;45.40;102154.59;6157970;23;20017;-80
2022/07/17 07:06:37;;;;;;;21.40;13.38;;;;;;;27.46;44.86;102166.66;6158214;23;20009;-80
2022/07/17 07:09:03;;;;;;;19.45;13.40;;;;;;;27.43;45.21;102162.63;6158302;23;20282;-82
2022/07/17 07:11:28;;;;;;;21.60;13.02;;;;;;;27.47;45.45;102165.47;6158204;23;20033;-79
2022/07/17 07:13:54;;;;;;;16.52;12.85;;;;;;;27.58;45.45;102155.88;6158018;23;20008;-81
2022/07/17 07:16:20;;;;;;;19.60;13.38;;;;;;;27.59;45.44;102149.06;6158195;23;20484;-82
2022/07/17 07:18:46;;;;;;;19.27;14.23;;;;;;;27.65;45.58;102167.09;6158361;23;20008;-80
2022/07/17 07:21:11;;;;;;;20.38;13.45;;;;;;;27.46;46.03;102163.84;6184694;23;20048;-82
2022/07/17 07:23:37;;;;;;;14.45;12.32;;;;;;;27.80;45.17;102165.19;6158192;23;20005;-81
2022/07/17 07:26:03;;;;;;;15.40;11.70;;;;;;;27.88;45.00;102147.13;6158069;23;20005;-82
2022/07/17 07:28:28;;;;;;;17.48;12.65;;;;;;;27.95;45.01;102151.97;6158206;23;20016;-81
2022/07/17 07:30:54;;;;;;;12.20;10.50;;;;;;;28.09;44.66;102151.19;6157835;23;20067;-82
2022/07/17 07:33:20;;;;;;;15.40;12.48;;;;;;;28.18;44.54;102143.16;6157869;23;20032;-83
2022/07/17 07:35:46;;;;;;;14.43;11.93;;;;;;;28.20;44.70;102143.59;6158215;23;20016;-83
2022/07/17 07:38:11;;;;;;;12.88;10.43;;;;;;;28.29;44.48;102146.00;6158183;23;20009;-82
2022/07/17 07:40:37;;;;;;;17.27;11.85;;;;;;;28.27;44.73;102134.34;6184227;23;20001;-83
2022/07/17 07:43:03;;;;;;;16.05;10.77;;;;;;;28.35;44.58;102142.41;6157915;23;20396;-82
2022/07/17 07:45:30;;;;;;;15.05;10.63;;;;;;;28.48;44.32;102134.34;6184317;23;20001;-83
2022/07/17 07:47:56;;;;;;;19.65;10.98;;;;;;;28.53;43.95;102133.16;6157998;23;20012;-83
2022/07/17 07:50:24;;;;;;;11.55;9.85;;;;;;;28.63;44.01;102130.31;6183864;23;20075;-82
2022/07/17 07:52:51;;;;;;;11.88;9.65;;;;;;;28.79;43.64;102134.69;6158504;23;20001;-81
2022/07/17 07:55:17;;;;;;;12.27;9.98;;;;;;;28.94;43.44;102131.50;6186261;23;20001;-83
2022/07/17 07:57:43;;;;;;;12.98;9.13;;;;;;;29.06;43.33;102127.44;6159780;23;20452;-82
2022/07/17 08:00:11;;;;;;;10.00;8.15;;;;;;;29.05;42.91;102122.22;6157256;23;20139;-82
2022/07/17 08:02:37;;;;;;;10.77;8.85;;;;;;;29.13;42.65;102110.53;6185996;23;20017;-82
2022/07/17 08:05:03;;;;;;;10.15;8.68;;;;;;;29.23;41.93;102120.94;6159641;23;20428;-82
2022/07/17 08:07:29;;;;;;;14.27;9.52;;;;;;;29.24;41.87;102111.28;6159535;23;20016;-82
2022/07/17 08:09:56;;;;;;;13.70;9.02;;;;;;;29.34;41.47;102112.44;6159603;23;20495;-81
2022/07/17 08:12:22;;;;;;;10.35;7.68;;;;;;;29.39;41.65;102106.38;6185981;23;20035;-82
2022/07/17 08:14:49;;;;;;;14.40;7.70;;;;;;;29.57;41.33;102106.31;6186087;23;20004;-82
2022/07/17 08:17:15;;;;;;;10.57;7.40;;;;;;;29.55;41.25;102097.50;6159406;23;20007;-83
2022/07/17 08:19:40;;;;;;;7.03;5.65;;;;;;;29.60;40.96;102088.59;6186012;23;20001;-82
2022/07/17 08:22:06;;;;;;;5.60;4.68;;;;;;;29.70;40.05;102098.19;6185678;23;20336;-82
2022/07/17 08:24:31;;;;;;;6.07;4.20;;;;;;;29.72;39.27;102090.94;6159531;23;20083;-82
2022/07/17 08:26:57;;;;;;;5.50;4.03;;;;;;;29.74;38.81;102082.88;6185301;23;20076;-82
2022/07/17 08:29:22;;;;;;;4.68;3.80;;;;;;;29.84;38.49;102075.53;6184150;23;20005;-81
2022/07/17 08:31:49;;;;;;;5.57;4.13;;;;;;;29.84;38.52;102070.69;6158813;23;20068;-82
2022/07/17 08:34:15;;;;;;;5.35;4.07;;;;;;;29.84;38.49;102073.53;6185760;23;20001;-82
2022/07/17 08:36:42;;;;;;;6.85;4.13;;;;;;;29.87;38.42;102062.66;6159482;23;20067;-82
2022/07/17 08:39:08;;;;;;;5.95;4.30;;;;;;;29.89;38.48;102068.66;6159487;23;20087;-82
2022/07/17 08:41:37;;;;;;;8.68;4.88;;;;;;;29.74;38.47;102065.97;6159386;23;20005;-81
2022/07/17 08:44:04;;;;;;;7.28;5.05;;;;;;;29.78;37.95;102063.13;6159359;23;20385;-82
2022/07/17 08:46:32;;;;;;;7.43;4.78;;;;;;;29.73;37.69;102060.75;6150869;23;20024;-82
2022/07/17 08:49:02;;;;;;;7.35;5.38;;;;;;;29.76;37.76;102062.72;6146759;23;20093;-82
2022/07/17 08:51:27;;;;;;;9.68;5.78;;;;;;;29.63;38.15;102062.44;6149142;23;20008;-82
2022/07/17 08:53:54;;;;;;;13.57;5.65;;;;;;;29.73;38.29;102055.91;6150076;23;20443;-82
2022/07/17 08:56:21;;;;;;;6.28;5.10;;;;;;;30.03;37.36;102055.28;6149247;23;20084;-82
2022/07/17 08:58:47;;;;;;;7.88;5.00;;;;;;;30.03;37.30;102048.84;6146485;23;20004;-82
2022/07/17 09:01:14;;;;;;;6.60;4.85;;;;;;;30.19;37.20;102039.84;6173996;23;20447;-81
2022/07/17 09:03:41;;;;;;;8.18;4.63;;;;;;;30.23;37.37;102047.06;6147561;23;20048;-82
2022/07/17 09:06:20;;;;;;;6.38;4.65;;;;;;;30.28;37.63;102043.78;6176088;23;20084;-82
2022/07/17 09:08:46;;;;;;;7.82;4.03;;;;;;;30.55;37.59;102029.00;6157422;23;20055;-81
2022/07/17 09:11:12;;;;;;;5.85;4.22;;;;;;;30.58;37.23;102034.59;6158961;23;20440;-82
2022/07/17 09:13:44;;;;;;;8.25;4.38;;;;;;;30.51;37.16;102031.06;6185458;23;20008;-81
2022/07/17 09:16:12;;;;;;;6.75;3.45;;;;;;;30.59;37.13;102030.56;6159217;23;20011;-81
2022/07/17 09:18:55;;;;;;;8.73;4.10;;;;;;;30.86;36.62;102022.22;6185515;23;20005;-82
2022/07/17 09:21:26;;;;;;;6.95;4.30;;;;;;;30.86;36.56;102022.22;6159170;23;20009;-82
2022/07/17 09:23:59;;;;;;;5.20;4.13;;;;;;;30.90;35.82;102031.41;6159254;23;20017;-81
2022/07/17 09:26:26;;;;;;;6.45;3.30;;;;;;;31.06;36.17;102021.53;6158964;23;20005;-82
2022/07/17 09:28:52;;;;;;;6.57;3.63;;;;;;;31.20;35.51;102029.81;6159095;23;20029;-82
2022/07/17 09:31:32;;;;;;;5.57;3.88;;;;;;;31.19;35.37;102031.84;6158882;23;20008;-82
2022/07/17 09:33:59;;;;;;;8.75;3.63;;;;;;;31.37;35.48;102033.66;6185551;23;20039;-81
2022/07/17 09:36:26;;;;;;;4.70;3.53;;;;;;;31.34;34.86;102017.53;6159168;23;20397;-81
2022/07/17 09:38:57;;;;;;;8.20;3.97;;;;;;;31.30;35.40;102016.81;6151680;23;20013;-82
2022/07/17 09:41:26;;;;;;;8.15;3.88;;;;;;;31.39;35.44;102019.91;6149445;23;20151;-82
2022/07/17 09:43:56;;;;;;;4.95;3.60;;;;;;;31.16;35.26;102017.78;6149694;23;20004;-82
2022/07/17 09:46:22;;;;;;;;;;;;;;;31.03;35.66;102019.56;6159065;23;20466;-82
2022/07/17 09:48:56;;;;;;;6.18;4.07;;;;;;;31.29;35.25;102018.84;6182675;23;19958;-82
2022/07/17 09:51:30;;;;;;;7.32;4.32;;;;;;;31.09;35.46;102007.38;6184338;23;20059;-86
2022/07/17 09:53:59;;;;;;;6.28;4.30;;;;;;;31.47;35.33;102004.44;6159445;23;20009;-85
2022/07/17 09:56:28;;;;;;;5.65;3.28;;;;;;;31.53;35.19;102005.56;6184834;23;20005;-84
2022/07/17 09:58:59;;;;;;;5.22;3.80;;;;;;;31.51;35.25;102004.38;6158535;23;20040;-84
2022/07/17 10:01:25;;;;;;;7.68;4.20;;;;;;;31.74;34.96;102010.88;6158707;23;20012;-83
2022/07/17 10:03:53;;;;;;;7.75;3.95;;;;;;;31.90;34.70;102021.53;6158965;23;20021;-84
2022/07/17 10:06:20;;;;;;;5.05;3.45;;;;;;;31.87;34.61;102013.88;6158768;23;20078;-84
2022/07/17 10:08:46;;;;;;;12.50;4.95;;;;;;;31.98;34.56;102006.03;6185382;23;20058;-82
2022/07/17 10:11:15;;;;;;;9.30;4.50;;;;;;;32.01;34.47;102015.66;6179549;23;20012;-80
2022/07/17 10:13:43;;;;;;;6.97;3.90;;;;;;;32.16;34.18;102014.19;6176771;23;20008;-84
2022/07/17 10:16:09;;;;;;;7.03;4.20;;;;;;;32.22;34.13;102008.81;6148852;23;20016;-88
2022/07/17 10:18:41;;;;;;;10.57;4.03;;;;;;;32.22;34.09;101997.53;6149163;23;20024;-87
2022/07/17 10:21:17;;;;;;;5.47;4.18;;;;;;;32.26;34.15;101998.22;6144897;23;20321;-84
2022/07/17 10:24:07;;;;;;;6.18;4.00;;;;;;;32.33;33.95;101992.47;6173833;23;20005;-84
2022/07/17 10:26:36;;;;;;;5.43;4.20;;;;;;;32.12;33.95;101987.19;6155374;23;20083;-84
2022/07/17 10:29:03;;;;;;;7.40;4.30;;;;;;;32.15;33.83;101989.16;6158579;23;20013;-88
2022/07/17 10:31:33;;;;;;;5.10;4.20;;;;;;;32.21;33.71;101990.28;6185154;23;20000;-85
2022/07/17 10:34:01;;;;;;;11.38;3.83;;;;;;;32.29;33.70;101980.41;6184707;23;20072;-85
2022/07/17 10:36:41;;;;;;;5.75;3.60;;;;;;;32.30;33.64;101970.69;6153151;23;20039;-83
2022/07/17 10:39:20;;;;;;;5.93;4.38;;;;;;;32.53;33.41;101973.47;6172624;23;20008;-86
2022/07/17 10:42:02;;;;;;;6.68;4.05;;;;;;;32.45;33.38;101972.03;6148887;23;20005;-84
2022/07/17 10:44:34;;;;;;;5.78;3.88;;;;;;;32.67;32.68;101966.72;6172254;23;20372;-84
2022/07/17 10:47:00;;;;;;;6.28;4.90;;;;;;;32.69;32.85;101963.47;6148419;23;20005;-84
2022/07/17 10:49:26;;;;;;;6.80;4.40;;;;;;;32.54;33.34;101966.59;6150380;23;20013;-85
2022/07/17 10:51:53;;;;;;;10.57;4.20;;;;;;;32.61;33.20;101959.19;6176800;23;20421;-84
2022/07/17 10:54:33;;;;;;;9.82;4.10;;;;;;;32.24;33.57;101961.91;6177165;23;20447;-89
2022/07/17 10:57:00;;;;;;;;;;;;;;;32.08;33.63;101963.84;6151266;23;20009;-83
2022/07/17 10:59:26;;;;;;;8.30;5.03;;;;;;;32.11;33.60;101960.16;6148317;23;19912;-86
2022/07/17 11:01:58;;;;;;;8.00;4.00;;;;;;;32.12;33.61;101954.09;6149522;23;20582;-83
2022/07/17 11:04:23;;;;;;;10.98;4.72;;;;;;;32.10;33.81;101950.09;6176613;23;20021;-84
2022/07/17 11:06:49;;;;;;;7.38;4.85;;;;;;;32.02;34.02;101953.03;6172658;23;20072;-86
2022/07/17 11:09:15;;;;;;;8.18;4.30;;;;;;;32.16;33.98;101954.81;6149593;23;20016;-85
2022/07/17 11:11:44;;;;;;;8.52;4.05;;;;;;;32.28;33.96;101944.88;6149459;23;20009;-91
2022/07/17 11:14:22;;;;;;;12.05;5.38;;;;;;;32.29;33.76;101950.09;6175548;23;20024;-86
2022/07/17 11:16:49;;;;;;;7.05;4.80;;;;;;;32.29;33.38;101943.66;6148394;23;20096;-84
2022/07/17 11:19:31;;;;;;;6.65;4.63;;;;;;;32.47;33.20;101941.28;6149325;23;20008;-85